METAR Data
IDs: Format: Raw Decoded Include TAF

Data at: 0856 UTC 03 Aug 2021

KBLU 030852Z AUTO 00000KT 10SM CLR 22/03 A3028 RMK AO2 SLP137 T02170028 58007 $
KBLU 030752Z AUTO 00000KT 10SM CLR 23/02 A3029 RMK AO2 SLP135 T02330017 402890200 $
KBLU 030652Z AUTO 00000KT 10SM CLR 23/02 A3029 RMK AO2 SLP139 T02280017 $
KBLU 030552Z AUTO 00000KT 10SM CLR 23/03 A3030 RMK AO2 SLP145 T02280028 10278 20211 58004 $
KBLU 030452Z AUTO 02004KT 10SM CLR 22/03 A3031 RMK AO2 SLP152 T02220033 $
KBLU 030352Z AUTO 00000KT 10SM CLR 22/03 A3031 RMK AO2 SLP156 T02220033 $
KBLU 030252Z AUTO 00000KT 10SM CLR 24/03 A3032 RMK AO2 SLP154 T02390033 57003 $
KBLU 030152Z AUTO 28005KT 10SM CLR 26/03 A3032 RMK AO2 SLP157 T02560033 $
KBLU 030052Z AUTO 27006KT 10SM CLR 27/03 A3033 RMK AO2 SLP157 T02670028 $
KBLU 022352Z AUTO 30007KT 270V340 10SM CLR 27/03 A3033 RMK AO2 SLP154 T02720028 10289 20261 58007 $
KBLU 022252Z AUTO 21007G16KT 170V250 10SM CLR 28/03 A3034 RMK AO2 SLP154 T02830033 $
KBLU 022152Z AUTO 23010G15KT 10SM CLR 28/02 A3034 RMK AO2 SLP160 T02780022 $
KBLU 022052Z AUTO 17009G15KT 130V200 10SM CLR 27/01 A3035 RMK AO2 SLP163 T02720011 58000 $
KBLU 021952Z AUTO 19007KT 140V210 10SM CLR 27/01 A3035 RMK AO2 SLP164 T02720011 $
KBLU 021852Z AUTO 21007KT 160V280 10SM CLR 27/01 A3035 RMK AO2 SLP167 T02670006 $
KBLU 021752Z AUTO VRB05KT 10SM CLR 26/03 A3035 RMK AO2 SLP167 T02560028 10267 20206 51003 $
KBLU 021652Z AUTO 10SM CLR 25/03 A3035 RMK AO2 SLP172 T02500028 $
KBLU 021552Z AUTO 10SM CLR 24/03 A3035 RMK AO2 SLP166 T02390033 $
KBLU 021452Z AUTO 10SM CLR 23/04 A3034 RMK AO2 SLP160 T02330039 53008 $
KBLU 021352Z AUTO 10SM CLR 21/02 A3033 RMK AO2 SLP160 T02110017 $
KBLU 021252Z AUTO 10SM CLR 21/01 A3032 RMK AO2 SLP153 T02110011 $
KBLU 021152Z AUTO 10SM CLR 21/02 A3031 RMK AO2 SLP150 T02110017 10222 20200 55001 $
KBLU 021052Z AUTO 10SM CLR 21/02 A3031 RMK AO2 SLP145 T02110022 $
KBLU 020952Z AUTO 10SM CLR 21/01 A3031 RMK AO2 SLP149 T02110006 $
KBLU 020852Z AUTO 10SM CLR 22/00 A3032 RMK AO2 SLP148 T02170000 56003 $
KBLU 020752Z AUTO 10SM CLR 22/01 A3032 RMK AO2 SLP148 T02170011 402890206 $
KBLU 020652Z AUTO 10SM CLR 21/03 A3032 RMK AO2 SLP154 T02110033 $
KBLU 020552Z AUTO 10SM CLR 22/04 A3033 RMK AO2 SLP159 T02170044 10278 20206 53006 $
KBLU 020452Z AUTO 10SM CLR 21/06 A3033 RMK AO2 SLP163 T02060061 $
KBLU 020352Z AUTO 10SM CLR 23/04 A3031 RMK AO2 SLP153 T02330044 $
KBLU 020252Z AUTO 10SM CLR 25/02 A3031 RMK AO2 SLP151 T02500022 53003 $
KBLU 020152Z AUTO 10SM CLR 27/02 A3029 RMK AO2 SLP143 T02670022 $
KBLU 020052Z AUTO 10SM CLR 27/02 A3030 RMK AO2 SLP149 T02720017 $
KBLU 012352Z AUTO 27010G15KT 10SM CLR 28/02 A3030 RMK AO2 SLP144 T02780017 10289 20256 56006 $
KBLU 012252Z AUTO 26005G18KT 10SM CLR 28/02 A3030 RMK AO2 SLP142 T02830022 $
KBLU 012152Z AUTO 22009G16KT 10SM CLR 28/02 A3031 RMK AO2 SLP147 T02780017 $